LiveATC.Net - Listen to live air traffic control over the Internet! Contact LiveATC.net for advertising information


ICAO: EPKK  IATA: KRK   Airport: John Paul II Balice International Airport
City: Krakow
Country: Poland   Continent: Europe
EPKK METAR Weather: EPKK 020100Z 07007KT 3000 BR BKN003 16/15 Q1014
EPKK Flight Activity (FlightAware)
EPKK Gnd/Tower/App
Feed Status: DOWN
Last heard on: 2014-08-22 17:48:03 (10 days 7 hours 57 minutes ago)
EPKK Gnd/Tower/App Audio Archives
FacilityFrequency
Krakow Approach121.075
Krakow Ground118.100
Krakow Tower123.250


NOTICE

Unauthorized use prohibited. See LiveATC.net Terms of Service


Find LiveATC Audio Streams


Airport/ARTCC Code

Frequency
(e.g., 124.400, 128.75)
Site-wide search

Browse LiveATC Feeds
LiveATC Coverage Map
Top 50 LiveATC Feeds
Bad Weather Areas

LiveATC FAQ
Offer a LiveATC Feed
Contact LiveATC.net
Press Inquiries

LiveATC on iPhone
LiveATC on Android

LiveATC Mobile
(Mobile browser)

ATC Audio Archives
Interesting Recordings

LiveATC Forums


Home Page
About LiveATC.net
Make a Donation
LiveATC Bookstore

Terms of Use
Privacy Policy

ATC/Radar Sites
U.S. ARTCC Freqs
Canadian Air Freqs

AIRMETs/SIGMETs

FAA Airport Status
Nat'l Airspace Status
Arrival Demand Charts


Server Software By:
Icecast.org
Liquidsoap

Please make a donation to help us keep growing!